KEWK/EWK METAR and TAF weather

Enter ICAO airport designator
Station Type Date Time Source
KEWK METAR 2019/05/25 14:56 UTC NOAA

KEWK 251456Z AUTO 18020G23KT 10SM OVC028 21/18 A3000 RMK AO2 SLP146 T02110183 51003


Station Type Date Time Source
KEWK Decoded METAR 2019/05/25 14:56 UTC NOAA

Newton, Newton City/County Airport, KS, United States (KEWK) 38-03N 097-17W
May 25, 2019 - 10:56 AM EDT / 2019.05.25 1456 UTC
Wind: from the S (180 degrees) at 23 MPH (20 KT) gusting to 26 MPH (23 KT):0
Visibility: 10 mile(s):0
Sky conditions: overcast
Temperature: 70.0 F (21.1 C)
Dew Point: 64.9 F (18.3 C)
Relative Humidity: 84%
Pressure (altimeter): 30 in. Hg (1015 hPa)
Pressure tendency: 0.01 inches (0.3 hPa) higher than three hours ago
ob: KEWK 251456Z AUTO 18020G23KT 10SM OVC028 21/18 A3000 RMK AO2 SLP146 T02110183 51003
cycle: 15

Station Type Date Time Source
KEWK TAF UTC NOAA

Error!

Example: see airport list